Time;durP1;ratioP1;P1;durP2;ratioP2;P2;SDS_P1;SDS_P2;PMS_P1;PMS_P2;Temp;Humidity;BMP_temperature;BMP_pressure;BME280_temperature;BME280_humidity;BME280_pressure;Samples;Min_cycle;Max_cycle;Signal;HPM_P1;HPM_P2
2022/03/22 00:02:19;;;;;;;18.83;13.57;;;;;;;8.25;38.80;96682.09;4975048;28;20035;-72
2022/03/22 00:04:45;;;;;;;23.70;13.68;;;;;;;8.10;38.29;96642.19;4975284;28;20035;-72
2022/03/22 00:07:10;;;;;;;17.52;13.85;;;;;;;7.92;38.67;96608.91;4975324;28;20027;-71
2022/03/22 00:09:36;;;;;;;22.35;14.13;;;;;;;8.05;38.28;96618.31;4975232;28;20027;-72
2022/03/22 00:12:02;;;;;;;21.02;13.70;;;;;;;8.31;38.96;96677.66;4975192;28;20023;-72
2022/03/22 00:14:27;;;;;;;23.23;14.43;;;;;;;8.25;38.61;96662.75;4990323;28;20059;-72
2022/03/22 00:16:53;;;;;;;24.05;14.57;;;;;;;7.99;38.80;96627.25;4975405;28;20062;-73
2022/03/22 00:19:21;;;;;;;21.40;13.98;;;;;;;8.04;39.24;96633.41;4973747;28;20377;-72
2022/03/22 00:21:47;;;;;;;21.30;15.05;;;;;;;8.34;39.23;96674.47;4973531;28;20031;-72
2022/03/22 00:24:13;;;;;;;19.67;14.93;;;;;;;8.31;39.29;96673.13;4975020;28;20430;-72
2022/03/22 00:26:38;;;;;;;25.10;14.25;;;;;;;8.36;39.35;96676.91;4973748;28;20109;-74
2022/03/22 00:29:04;;;;;;;23.77;14.70;;;;;;;7.76;39.19;96592.06;4973352;28;20027;-72
2022/03/22 00:31:30;;;;;;;22.88;14.73;;;;;;;8.26;38.91;96675.75;4973356;28;20033;-73
2022/03/22 00:33:55;;;;;;;22.55;15.20;;;;;;;7.82;39.82;96622.84;4974791;28;20046;-73
2022/03/22 00:36:22;;;;;;;21.35;15.93;;;;;;;7.76;40.14;96618.53;4974692;28;20097;-72
2022/03/22 00:38:48;;;;;;;25.23;15.20;;;;;;;7.43;39.94;96573.72;4973206;28;20432;-72
2022/03/22 00:41:13;;;;;;;26.33;16.60;;;;;;;7.89;40.26;96662.41;4974480;28;20039;-72
2022/03/22 00:43:39;;;;;;;23.90;15.27;;;;;;;6.99;40.25;96526.09;4974663;28;20620;-72
2022/03/22 00:46:05;;;;;;;25.98;16.33;;;;;;;7.92;40.41;96687.59;4973303;28;20490;-72
2022/03/22 00:48:31;;;;;;;23.20;15.32;;;;;;;7.36;40.39;96610.94;4972968;28;20499;-72
2022/03/22 00:50:57;;;;;;;22.85;16.20;;;;;;;7.39;41.00;96636.16;4973174;28;20030;-73
2022/03/22 00:53:23;;;;;;;26.27;15.57;;;;;;;7.47;40.63;96657.69;4973154;28;20033;-73
2022/03/22 00:55:49;;;;;;;21.42;14.55;;;;;;;7.20;40.81;96627.69;4973127;28;20407;-74
2022/03/22 00:58:15;;;;;;;27.10;16.15;;;;;;;7.40;41.05;96658.91;4974343;28;20033;-73
2022/03/22 01:00:41;;;;;;;22.73;15.70;;;;;;;7.47;40.55;96681.53;4973694;28;20027;-74
2022/03/22 01:03:09;;;;;;;21.35;14.82;;;;;;;7.25;41.52;96656.88;4973929;28;20031;-73
2022/03/22 01:05:35;;;;;;;18.52;14.75;;;;;;;7.43;41.47;96684.91;4974157;28;20075;-73
2022/03/22 01:08:10;;;;;;;20.60;15.20;;;;;;;7.41;42.01;96671.09;4989011;28;20033;-73
2022/03/22 01:10:38;;;;;;;24.15;14.65;;;;;;;7.38;41.54;96669.75;4972414;28;20027;-73
2022/03/22 01:13:04;;;;;;;21.23;14.73;;;;;;;7.23;41.62;96643.91;4973983;28;20496;-73
2022/03/22 01:15:34;;;;;;;19.38;13.98;;;;;;;7.39;41.42;96681.16;4974006;28;20030;-73
2022/03/22 01:18:05;;;;;;;16.83;12.88;;;;;;;7.17;41.61;96646.72;4972701;28;20113;-72
2022/03/22 01:20:35;;;;;;;17.25;12.85;;;;;;;7.25;41.38;96651.59;4972344;28;20511;-73
2022/03/22 01:23:05;;;;;;;18.38;13.02;;;;;;;7.33;40.88;96666.25;4973734;28;20066;-74
2022/03/22 01:25:34;;;;;;;16.17;12.13;;;;;;;7.29;40.87;96663.28;4973852;28;20034;-73
2022/03/22 01:28:04;;;;;;;19.48;12.80;;;;;;;7.36;41.00;96668.38;4972399;28;20086;-73
2022/03/22 01:30:29;;;;;;;15.85;12.02;;;;;;;7.20;41.08;96644.38;4971599;28;20023;-73
2022/03/22 01:32:55;;;;;;;20.20;13.38;;;;;;;7.19;40.35;96639.34;4973523;28;20023;-73
2022/03/22 01:35:22;;;;;;;17.75;13.02;;;;;;;7.21;40.76;96645.16;4972186;28;20026;-72
2022/03/22 01:37:49;;;;;;;17.23;12.40;;;;;;;7.14;40.84;96644.56;4973585;28;20054;-72
2022/03/22 01:40:16;;;;;;;16.48;12.77;;;;;;;7.32;40.53;96664.63;4988033;28;20054;-73
2022/03/22 01:42:42;;;;;;;13.43;11.90;;;;;;;7.14;40.82;96637.41;4973537;28;20022;-74
2022/03/22 01:45:09;;;;;;;15.40;12.43;;;;;;;7.09;40.68;96636.56;4973537;28;20041;-72
2022/03/22 01:47:36;;;;;;;16.70;12.50;;;;;;;7.05;40.59;96628.28;4973366;28;20081;-72
2022/03/22 01:50:03;;;;;;;16.13;12.15;;;;;;;7.30;40.41;96660.38;4971801;28;20128;-73
2022/03/22 01:52:31;;;;;;;13.73;11.15;;;;;;;7.06;40.58;96639.69;4972992;28;20065;-73
2022/03/22 01:54:57;;;;;;;16.85;12.32;;;;;;;7.27;40.50;96676.78;4971924;28;20496;-73
2022/03/22 01:57:24;;;;;;;15.43;10.93;;;;;;;7.25;40.87;96662.97;4973125;28;20211;-74
2022/03/22 01:59:50;;;;;;;15.88;12.43;;;;;;;7.02;40.38;96626.16;4972458;28;20106;-73
2022/03/22 02:07:47;;;;;;;17.50;12.13;;;;;;;6.87;40.48;96615.38;4973294;28;20081;-74
2022/03/22 02:10:13;;;;;;;17.83;12.07;;;;;;;7.10;40.96;96654.81;4971471;28;20027;-72
2022/03/22 02:12:38;;;;;;;19.08;12.77;;;;;;;7.04;40.92;96658.44;4972996;28;20027;-74
2022/03/22 02:15:05;;;;;;;19.75;13.40;;;;;;;6.58;41.01;96589.03;4972829;28;20030;-72
2022/03/22 02:17:31;;;;;;;15.15;12.20;;;;;;;6.94;41.56;96658.31;4987799;28;20023;-72
2022/03/22 02:19:57;;;;;;;22.38;13.10;;;;;;;6.75;41.08;96618.91;4971291;28;20026;-72
2022/03/22 02:22:35;;;;;;;15.65;12.68;;;;;;;6.93;40.76;96648.78;4972733;28;20038;-72
2022/03/22 02:25:01;;;;;;;16.45;12.95;;;;;;;6.74;41.21;96630.53;4971636;28;20030;-72
2022/03/22 02:27:29;;;;;;;17.67;12.60;;;;;;;6.23;41.43;96549.66;4972597;28;20031;-72
2022/03/22 02:29:55;;;;;;;16.58;12.65;;;;;;;6.44;41.36;96599.16;4972602;28;20034;-72
2022/03/22 02:32:24;;;;;;;20.23;13.00;;;;;;;6.53;41.14;96615.41;4972654;28;20039;-73
2022/03/22 02:34:49;;;;;;;18.27;12.90;;;;;;;6.76;41.87;96641.69;4971679;28;20031;-73
2022/03/22 02:37:15;;;;;;;18.75;13.10;;;;;;;6.49;41.87;96606.34;4972849;28;20026;-73
2022/03/22 02:39:41;;;;;;;17.90;12.70;;;;;;;6.69;41.63;96638.38;4972502;28;20023;-72
2022/03/22 02:42:06;;;;;;;15.68;12.50;;;;;;;6.63;42.08;96628.78;4973031;28;20117;-71
2022/03/22 02:44:32;;;;;;;19.08;13.10;;;;;;;6.58;41.92;96631.34;4991631;28;20023;-72
2022/03/22 02:46:57;;;;;;;15.57;11.57;;;;;;;6.13;42.23;96578.56;4975430;28;20027;-72
2022/03/22 02:49:23;;;;;;;17.13;13.27;;;;;;;6.12;42.23;96569.06;4976511;28;20037;-71
2022/03/22 02:51:48;;;;;;;19.85;13.32;;;;;;;6.35;42.60;96605.09;4975010;28;20038;-72
2022/03/22 02:54:13;;;;;;;16.88;13.52;;;;;;;5.57;42.26;96493.13;4975210;28;20027;-72
2022/03/22 02:56:39;;;;;;;18.52;13.43;;;;;;;6.32;42.22;96618.78;4976598;28;20102;-72
2022/03/22 02:59:04;;;;;;;18.90;13.68;;;;;;;6.43;41.86;96639.03;4974991;28;20043;-73
2022/03/22 03:01:32;;;;;;;18.25;13.35;;;;;;;6.41;42.28;96663.06;4974895;28;20027;-72
2022/03/22 03:04:01;;;;;;;24.70;14.18;;;;;;;6.35;42.87;96640.25;4976137;28;20045;-72
2022/03/22 03:06:30;;;;;;;17.60;13.10;;;;;;;6.38;42.24;96641.59;4976141;28;20078;-72
2022/03/22 03:08:58;;;;;;;20.35;13.90;;;;;;;6.07;42.29;96606.75;4974957;28;20034;-73
2022/03/22 03:11:24;;;;;;;18.30;13.95;;;;;;;5.97;42.76;96588.09;4975418;28;20446;-72
2022/03/22 03:16:34;;;;;;;16.73;14.40;;;;;;;5.86;43.23;96575.75;4976235;28;20042;-72
2022/03/22 03:18:59;;;;;;;20.10;14.43;;;;;;;6.05;43.14;96627.34;4976124;28;20038;-73
2022/03/22 03:21:25;;;;;;;21.17;14.38;;;;;;;5.96;43.02;96619.00;4974782;28;20027;-72
2022/03/22 03:23:50;;;;;;;21.58;14.88;;;;;;;5.29;43.43;96518.53;4976219;28;20472;-71
2022/03/22 03:26:15;;;;;;;19.40;14.52;;;;;;;5.98;43.44;96637.22;4976210;28;20081;-70
2022/03/22 03:28:41;;;;;;;22.23;14.30;;;;;;;5.70;43.58;96586.03;4974729;28;20103;-72
2022/03/22 03:31:06;;;;;;;22.55;14.02;;;;;;;5.65;43.45;96599.13;4990631;28;20411;-71
2022/03/22 03:33:32;;;;;;;20.63;12.80;;;;;;;5.12;43.36;96504.50;4975016;28;20130;-71
2022/03/22 03:35:58;;;;;;;17.35;13.10;;;;;;;5.90;43.68;96630.47;4977196;28;20027;-71
2022/03/22 03:38:23;;;;;;;25.77;13.95;;;;;;;6.12;44.09;96669.44;4974160;28;20035;-71
2022/03/22 03:43:32;;;;;;;21.02;13.20;;;;;;;5.82;43.61;96601.81;4975756;28;20499;-70
2022/03/22 03:48:43;;;;;;;15.23;12.88;;;;;;;6.13;43.80;96656.00;4935442;28;20050;-73
2022/03/22 03:51:08;;;;;;;17.27;13.15;;;;;;;5.96;43.63;96626.13;4975321;28;20035;-73
2022/03/22 03:53:34;;;;;;;15.35;12.20;;;;;;;5.99;43.59;96629.09;4974858;28;20113;-72
2022/03/22 03:55:59;;;;;;;18.95;12.88;;;;;;;5.80;43.85;96597.81;4975449;28;20031;-73
2022/03/22 03:58:25;;;;;;;14.80;13.23;;;;;;;6.36;43.50;96675.41;4974973;28;20086;-71
2022/03/22 04:00:50;;;;;;;17.15;12.88;;;;;;;6.11;43.44;96642.22;4973581;28;20026;-71
2022/03/22 04:03:15;;;;;;;19.00;13.10;;;;;;;5.96;43.60;96607.63;4975039;28;20093;-70
2022/03/22 04:05:41;;;;;;;16.85;13.45;;;;;;;5.91;43.75;96610.16;4975358;28;20034;-72
2022/03/22 04:08:06;;;;;;;18.90;14.00;;;;;;;6.13;43.14;96650.72;4974903;28;20035;-72
2022/03/22 04:10:34;;;;;;;16.95;14.02;;;;;;;6.04;43.64;96638.94;4973448;28;20137;-73
2022/03/22 04:13:00;;;;;;;16.20;14.07;;;;;;;5.84;43.64;96622.72;4973928;28;20395;-72
2022/03/22 04:15:25;;;;;;;18.20;13.88;;;;;;;6.12;44.04;96672.88;4974998;28;20035;-72
2022/03/22 04:17:52;;;;;;;19.98;14.43;;;;;;;5.89;43.91;96636.81;4975066;28;20464;-73
2022/03/22 04:20:18;;;;;;;23.88;14.63;;;;;;;5.85;44.00;96632.22;4973167;28;20495;-72
2022/03/22 04:22:43;;;;;;;19.88;14.20;;;;;;;5.77;44.09;96629.97;4973623;28;20121;-71
2022/03/22 04:25:09;;;;;;;22.48;14.70;;;;;;;5.51;43.92;96591.75;4973559;28;20061;-72
2022/03/22 04:33:02;;;;;;;18.80;15.05;;;;;;;5.84;45.20;96673.69;4975062;28;20069;-72
2022/03/22 04:35:28;;;;;;;21.90;15.00;;;;;;;5.85;44.85;96674.47;4974608;28;20109;-73
2022/03/22 04:37:55;;;;;;;17.95;14.75;;;;;;;5.57;44.63;96647.00;4973377;28;20038;-73
2022/03/22 04:40:21;;;;;;;22.52;15.30;;;;;;;5.60;44.42;96657.13;4972793;28;20041;-74
2022/03/22 04:42:48;;;;;;;22.00;14.75;;;;;;;5.56;44.51;96649.91;4974472;28;20399;-72
2022/03/22 04:45:14;;;;;;;28.15;15.52;;;;;;;5.43;44.73;96632.50;4973292;28;20042;-72
2022/03/22 04:47:40;;;;;;;21.55;16.00;;;;;;;5.18;45.17;96598.50;4974487;28;20031;-72
2022/03/22 04:50:07;;;;;;;21.58;15.25;;;;;;;5.34;44.90;96636.56;4974052;28;20037;-73
2022/03/22 04:58:02;;;;;;;22.17;15.15;;;;;;;5.21;45.41;96640.22;4974716;28;20033;-72
2022/03/22 05:00:28;;;;;;;21.75;15.40;;;;;;;5.27;45.73;96670.97;4973700;28;20031;-73
2022/03/22 05:02:53;;;;;;;20.73;15.13;;;;;;;5.07;45.61;96639.72;4974108;28;20109;-72
2022/03/22 05:06:25;;;;;;;26.15;14.75;;;;;;;5.17;45.44;96666.31;4973667;28;20031;-72
2022/03/22 05:08:04;;;;;;;22.30;15.80;;;;;;;5.11;46.16;96671.69;4974049;28;20027;-72
2022/03/22 05:10:35;;;;;;;35.97;16.35;;;;;;;4.72;45.97;96618.66;4972506;28;20042;-72
2022/03/22 05:13:00;;;;;;;19.83;15.05;;;;;;;4.35;45.87;96562.72;4974256;28;20041;-71
2022/03/22 05:15:25;;;;;;;28.23;15.73;;;;;;;4.25;45.93;96555.44;4974077;28;20476;-72
2022/03/22 05:17:51;;;;;;;22.30;15.57;;;;;;;5.16;46.17;96690.25;4974131;28;20022;-72
2022/03/22 05:20:17;;;;;;;19.67;15.50;;;;;;;4.53;46.10;96599.50;4973628;28;20031;-72
2022/03/22 05:22:43;;;;;;;24.23;15.25;;;;;;;5.18;46.56;96696.91;4972634;28;20369;-71
2022/03/22 05:25:09;;;;;;;21.80;14.75;;;;;;;5.22;46.32;96699.91;4972567;28;20081;-71
2022/03/22 05:27:37;;;;;;;19.48;15.77;;;;;;;4.76;46.39;96629.50;4973713;28;20027;-72
2022/03/22 05:30:03;;;;;;;23.90;14.55;;;;;;;5.10;46.54;96678.00;4973432;28;20027;-71
2022/03/22 05:32:28;;;;;;;21.20;14.73;;;;;;;4.96;46.33;96643.13;4973485;28;20023;-71
2022/03/22 05:34:54;;;;;;;29.77;15.90;;;;;;;5.26;46.24;96690.47;4973384;28;20090;-71
2022/03/22 05:37:21;;;;;;;21.38;14.93;;;;;;;5.21;46.41;96691.16;4973639;28;20491;-72
2022/03/22 05:39:46;;;;;;;30.35;14.68;;;;;;;5.02;46.43;96658.06;4973239;28;20034;-71
2022/03/22 05:42:13;;;;;;;34.90;16.63;;;;;;;5.31;46.40;96689.78;4973163;28;20030;-72
2022/03/22 05:44:39;;;;;;;34.75;16.70;;;;;;;5.37;46.55;96697.56;4973469;28;20019;-71
2022/03/22 05:47:06;;;;;;;32.03;15.65;;;;;;;5.17;47.18;96655.75;4988313;28;20030;-72
2022/03/22 05:49:33;;;;;;;26.90;16.98;;;;;;;5.50;47.50;96703.63;4973767;28;20023;-70
2022/03/22 05:51:59;;;;;;;24.88;15.27;;;;;;;5.37;46.74;96655.34;4973851;28;20031;-71
2022/03/22 05:54:24;;;;;;;22.35;14.95;;;;;;;5.60;46.49;96661.59;4973679;28;20118;-72
2022/03/22 05:56:50;;;;;;;23.83;15.07;;;;;;;5.93;45.84;96696.03;4973219;28;20097;-72
2022/03/22 05:59:15;;;;;;;25.48;15.68;;;;;;;6.13;45.62;96703.53;4971770;28;20549;-73
2022/03/22 06:01:44;;;;;;;19.50;14.35;;;;;;;6.08;45.07;96676.25;4972747;28;20031;-72
2022/03/22 06:04:09;;;;;;;18.88;15.20;;;;;;;5.43;44.98;96572.63;4972928;28;20105;-71
2022/03/22 06:06:35;;;;;;;24.05;15.07;;;;;;;5.96;45.23;96647.25;4973151;28;20070;-69
2022/03/22 06:09:01;;;;;;;20.45;13.95;;;;;;;6.47;44.33;96700.97;4972684;28;20042;-71
2022/03/22 06:11:26;;;;;;;17.40;14.25;;;;;;;6.50;44.21;96690.72;4972684;28;20122;-70
2022/03/22 06:13:51;;;;;;;21.90;14.25;;;;;;;6.58;43.88;96686.88;4972903;28;20031;-69
2022/03/22 06:16:18;;;;;;;19.35;13.40;;;;;;;6.78;43.90;96716.28;4972910;28;20046;-70
2022/03/22 06:18:43;;;;;;;17.05;12.73;;;;;;;6.71;43.83;96685.75;4972608;28;20034;-71
2022/03/22 06:21:09;;;;;;;20.65;12.50;;;;;;;6.54;43.21;96640.78;4971335;28;20027;-70
2022/03/22 06:23:34;;;;;;;17.80;14.10;;;;;;;6.87;43.34;96681.50;4971614;28;20062;-71
2022/03/22 06:26:01;;;;;;;24.75;14.05;;;;;;;7.14;43.21;96711.50;4971308;28;20061;-68
2022/03/22 06:28:26;;;;;;;18.88;15.30;;;;;;;6.78;42.78;96630.84;4972282;28;20472;-71
2022/03/22 06:30:52;;;;;;;26.50;14.90;;;;;;;7.09;43.22;96678.88;4972414;28;20031;-73
2022/03/22 06:33:18;;;;;;;25.27;14.85;;;;;;;7.03;43.63;96670.88;4972555;28;20027;-69
2022/03/22 06:35:45;;;;;;;22.95;13.88;;;;;;;6.95;43.51;96659.91;4987521;28;20478;-70
2022/03/22 06:38:11;;;;;;;19.25;14.75;;;;;;;7.58;43.45;96702.84;4972753;28;20053;-73
2022/03/22 06:40:40;;;;;;;22.30;14.32;;;;;;;7.42;43.02;96670.06;4970860;28;20488;-67
2022/03/22 06:43:10;;;;;;;16.33;14.05;;;;;;;7.82;42.58;96707.63;4972537;28;20027;-71
2022/03/22 06:45:37;;;;;;;24.33;14.57;;;;;;;7.81;42.67;96697.28;4972674;28;20027;-72
2022/03/22 06:48:03;;;;;;;19.67;13.35;;;;;;;7.84;42.03;96712.69;4972513;28;20031;-69
2022/03/22 06:50:29;;;;;;;20.13;13.95;;;;;;;7.77;42.35;96693.50;4972328;28;20027;-70
2022/03/22 06:52:55;;;;;;;17.45;13.95;;;;;;;7.67;41.62;96654.47;4972593;28;20395;-72
2022/03/22 06:55:22;;;;;;;17.45;13.02;;;;;;;8.00;41.92;96689.81;4972482;28;20114;-70
2022/03/22 06:57:51;;;;;;;20.48;13.40;;;;;;;8.31;41.80;96720.06;4972382;28;20049;-71
2022/03/22 07:00:19;;;;;;;17.13;13.32;;;;;;;8.32;41.71;96713.72;4968999;28;21011;-72
2022/03/22 07:02:46;;;;;;;16.25;14.27;;;;;;;7.62;41.38;96592.69;4953433;28;20020;-72
2022/03/22 07:05:12;;;;;;;20.73;13.38;;;;;;;8.29;41.51;96691.16;4953474;28;20023;-70
2022/03/22 07:07:38;;;;;;;18.13;13.07;;;;;;;8.69;41.26;96731.56;4951881;29;20034;-72
2022/03/22 07:10:06;;;;;;;21.20;13.43;;;;;;;8.39;40.52;96677.19;4952273;28;20114;-71
2022/03/22 07:12:32;;;;;;;17.70;14.02;;;;;;;8.54;40.53;96701.19;4971049;28;20018;-71
2022/03/22 07:14:57;;;;;;;30.35;13.57;;;;;;;8.71;40.64;96724.19;4972417;28;20376;-71
2022/03/22 07:17:23;;;;;;;20.30;13.45;;;;;;;8.12;40.20;96636.66;4953829;28;20404;-71
2022/03/22 07:19:48;;;;;;;16.75;13.00;;;;;;;8.47;40.03;96668.81;4952822;28;20027;-72
2022/03/22 07:22:13;;;;;;;19.13;13.77;;;;;;;9.05;40.03;96716.72;4953023;29;20062;-72
2022/03/22 07:24:39;;;;;;;19.35;13.05;;;;;;;9.01;39.82;96684.59;4951908;28;20121;-72
2022/03/22 07:27:04;;;;;;;22.75;13.55;;;;;;;9.10;39.66;96682.25;4953296;28;20034;-70
2022/03/22 07:29:31;;;;;;;17.75;13.30;;;;;;;9.58;39.39;96731.66;4970885;28;20479;-71
2022/03/22 07:31:59;;;;;;;16.70;12.95;;;;;;;9.79;38.96;96753.81;4954811;28;20024;-71
2022/03/22 07:34:25;;;;;;;20.52;12.15;;;;;;;9.52;39.15;96689.38;4956599;28;20469;-70
2022/03/22 07:36:54;;;;;;;21.20;14.05;;;;;;;10.04;38.63;96745.13;4956553;28;20159;-71
2022/03/22 07:39:21;;;;;;;21.02;13.15;;;;;;;10.10;38.46;96760.03;4955063;29;20503;-70
2022/03/22 07:41:48;;;;;;;14.25;12.23;;;;;;;10.04;38.12;96715.91;4971058;28;20123;-71
2022/03/22 07:44:13;;;;;;;16.75;12.55;;;;;;;10.19;38.02;96717.81;4970791;28;20031;-71
2022/03/22 07:46:39;;;;;;;14.13;12.63;;;;;;;9.92;37.78;96656.84;4965813;28;20041;-71
2022/03/22 07:54:34;;;;;;;17.83;12.35;;;;;;;10.60;37.68;96734.66;4975640;28;20094;-72
2022/03/22 07:56:59;;;;;;;13.02;11.73;;;;;;;10.43;36.83;96698.72;4975699;28;20023;-71
2022/03/22 07:59:27;;;;;;;21.13;12.80;;;;;;;10.84;36.97;96740.25;4974954;28;20515;-72
2022/03/22 08:01:52;;;;;;;15.55;12.65;;;;;;;10.89;36.71;96723.47;4963423;28;20023;-73
2022/03/22 08:04:17;;;;;;;14.05;11.70;;;;;;;11.00;36.26;96716.28;4955983;28;20424;-71
2022/03/22 08:06:43;;;;;;;15.60;12.18;;;;;;;10.98;35.76;96695.25;4956159;29;20035;-74
2022/03/22 08:09:09;;;;;;;18.50;12.90;;;;;;;11.10;35.56;96702.97;4970571;28;20051;-71
2022/03/22 08:11:34;;;;;;;17.65;12.98;;;;;;;11.16;36.05;96702.69;4954620;28;20086;-72
2022/03/22 08:14:01;;;;;;;15.25;12.98;;;;;;;11.45;35.47;96734.84;4956168;28;20030;-74
2022/03/22 08:16:27;;;;;;;15.52;13.25;;;;;;;11.59;35.35;96753.75;4976736;28;20125;-72
2022/03/22 08:18:53;;;;;;;16.98;12.73;;;;;;;11.68;34.83;96746.81;4974875;28;20102;-71
2022/03/22 08:21:18;;;;;;;19.52;12.77;;;;;;;11.18;34.70;96671.25;4974940;28;20383;-70
2022/03/22 08:23:44;;;;;;;17.40;13.50;;;;;;;11.74;34.80;96726.25;4973659;28;20035;-72
2022/03/22 08:26:09;;;;;;;19.75;12.38;;;;;;;11.89;34.58;96720.09;4973770;28;20535;-71
2022/03/22 08:28:35;;;;;;;20.95;11.95;;;;;;;11.64;34.22;96662.31;4974630;28;20031;-73
2022/03/22 08:31:01;;;;;;;16.63;12.82;;;;;;;11.86;33.97;96694.78;4986748;28;20066;-73
2022/03/22 08:33:27;;;;;;;18.25;12.75;;;;;;;12.05;33.75;96704.84;4955366;28;20203;-72
2022/03/22 08:35:52;;;;;;;16.50;12.15;;;;;;;12.40;34.13;96738.53;4969947;28;20030;-73
2022/03/22 08:38:20;;;;;;;15.82;11.93;;;;;;;12.39;33.72;96728.94;4955143;28;20027;-73
2022/03/22 08:40:46;;;;;;;14.88;12.57;;;;;;;12.59;33.44;96741.31;4954112;28;20027;-74
2022/03/22 08:43:12;;;;;;;15.00;12.27;;;;;;;12.59;32.48;96730.66;4970237;28;20559;-73
2022/03/22 08:45:37;;;;;;;14.45;12.30;;;;;;;12.35;33.05;96696.66;4955550;28;20023;-73
2022/03/22 08:48:09;;;;;;;14.32;12.60;;;;;;;12.62;32.70;96712.22;4971823;28;20049;-73
2022/03/22 08:50:36;;;;;;;18.65;12.45;;;;;;;12.79;32.64;96741.19;4974141;28;20027;-73
2022/03/22 08:53:02;;;;;;;20.92;12.48;;;;;;;12.97;32.41;96734.38;4973228;28;20037;-73
2022/03/22 08:55:29;;;;;;;15.32;13.02;;;;;;;12.88;32.27;96698.66;4973486;28;20167;-72
2022/03/22 08:57:55;;;;;;;19.27;13.10;;;;;;;12.95;31.94;96715.19;4973423;28;20054;-73
2022/03/22 09:00:21;;;;;;;16.90;11.85;;;;;;;12.55;32.28;96718.94;4972747;28;20447;-73
2022/03/22 09:02:49;;;;;;;20.10;13.25;;;;;;;11.47;33.38;96693.84;4973188;28;20107;-72
2022/03/22 09:08:01;;;;;;;13.88;12.40;;;;;;;13.04;31.37;96732.16;4974567;28;20030;-73
2022/03/22 09:10:29;;;;;;;16.17;11.65;;;;;;;12.75;31.58;96684.88;4973831;28;20030;-72
2022/03/22 09:12:54;;;;;;;19.15;11.93;;;;;;;12.88;31.36;96720.03;4972778;28;20043;-75
2022/03/22 09:15:22;;;;;;;18.88;12.90;;;;;;;11.79;32.87;96715.56;4974131;28;20050;-72
2022/03/22 09:17:49;;;;;;;16.98;12.73;;;;;;;13.21;31.60;96731.78;4960808;28;20035;-73
2022/03/22 09:20:14;;;;;;;17.33;12.02;;;;;;;13.24;30.94;96667.09;4954266;28;20108;-72
2022/03/22 09:22:44;;;;;;;19.30;12.35;;;;;;;13.00;30.74;96726.63;4953340;29;20401;-72
2022/03/22 09:25:11;;;;;;;20.45;12.98;;;;;;;11.68;31.69;96594.09;4954764;28;20042;-72
2022/03/22 09:27:37;;;;;;;14.25;11.48;;;;;;;12.39;31.77;96712.91;4954600;28;20031;-72
2022/03/22 09:30:04;;;;;;;19.60;12.50;;;;;;;12.58;30.97;96635.63;4952901;29;20023;-72
2022/03/22 09:32:30;;;;;;;18.73;12.30;;;;;;;13.42;29.90;96735.88;4954770;28;20032;-73
2022/03/22 09:34:58;;;;;;;16.58;12.75;;;;;;;12.36;30.29;96607.53;4953126;29;20027;-72
2022/03/22 09:37:24;;;;;;;18.42;12.48;;;;;;;12.66;29.72;96600.34;4954471;28;20030;-72
2022/03/22 09:39:50;;;;;;;15.77;11.75;;;;;;;13.30;29.04;96628.53;4954036;28;20038;-73
2022/03/22 09:42:16;;;;;;;17.52;12.15;;;;;;;13.17;29.93;96718.19;4954194;28;20027;-74
2022/03/22 09:44:48;;;;;;;17.15;12.40;;;;;;;13.08;30.17;96714.50;4969105;28;20020;-72
2022/03/22 09:47:14;;;;;;;15.00;11.45;;;;;;;14.26;29.04;96711.34;4953704;28;20384;-73
2022/03/22 09:49:40;;;;;;;18.23;12.70;;;;;;;13.49;28.86;96642.75;4953887;28;20085;-74
2022/03/22 09:52:06;;;;;;;20.10;13.07;;;;;;;13.91;28.86;96697.34;4953580;28;20023;-73
2022/03/22 09:54:32;;;;;;;18.95;12.77;;;;;;;14.36;28.78;96656.88;4954169;28;20035;-71
2022/03/22 09:56:57;;;;;;;15.25;12.93;;;;;;;13.89;28.67;96616.59;4952797;29;20167;-71
2022/03/22 09:59:23;;;;;;;24.35;13.35;;;;;;;13.25;29.67;96676.69;4952468;29;20028;-73
2022/03/22 10:01:48;;;;;;;18.85;13.60;;;;;;;13.44;29.25;96669.56;4951990;28;20078;-72
2022/03/22 10:04:15;;;;;;;21.00;13.25;;;;;;;14.17;28.54;96697.00;4954084;28;20039;-72
2022/03/22 10:06:46;;;;;;;17.25;12.95;;;;;;;14.42;28.34;96699.34;4965788;23;20061;-64
2022/03/22 10:09:12;;;;;;;18.52;13.43;;;;;;;14.37;28.45;96704.75;4953240;28;20039;-65
2022/03/22 10:11:42;;;;;;;19.05;12.75;;;;;;;14.31;28.56;96666.56;4953384;28;20042;-65
2022/03/22 10:14:09;;;;;;;15.45;13.43;;;;;;;13.55;29.02;96677.47;4953478;28;20023;-64
2022/03/22 10:16:45;;;;;;;15.45;13.18;;;;;;;14.42;28.41;96707.38;4953494;28;20027;-64
2022/03/22 10:19:22;;;;;;;16.35;13.45;;;;;;;14.54;28.45;96697.06;4968160;28;20062;-65
2022/03/22 10:21:48;;;;;;;15.60;12.73;;;;;;;13.18;29.56;96678.88;4967944;28;20027;-65
2022/03/22 10:24:17;;;;;;;24.83;12.93;;;;;;;13.48;28.83;96643.06;4953432;28;20027;-66
2022/03/22 10:26:47;;;;;;;18.85;12.55;;;;;;;13.53;29.75;96699.13;4968295;28;20063;-64
2022/03/22 10:29:16;;;;;;;17.25;13.32;;;;;;;14.86;27.60;96690.13;4952912;28;20031;-65
2022/03/22 10:31:43;;;;;;;17.42;13.07;;;;;;;14.88;27.13;96685.25;4952084;29;20034;-64
2022/03/22 10:34:10;;;;;;;17.45;13.65;;;;;;;15.40;26.52;96677.13;4967979;28;20031;-64
2022/03/22 10:36:41;;;;;;;22.35;12.75;;;;;;;15.58;26.30;96692.34;4953363;28;20031;-67
2022/03/22 10:39:11;;;;;;;19.17;12.98;;;;;;;15.80;25.76;96683.63;4952950;28;20504;-66
2022/03/22 10:41:43;;;;;;;16.38;12.82;;;;;;;15.57;25.66;96686.19;4953189;28;20051;-65
2022/03/22 10:44:13;;;;;;;20.48;12.85;;;;;;;15.68;26.02;96668.03;4953224;28;20102;-65
2022/03/22 10:46:38;;;;;;;18.10;13.88;;;;;;;15.67;25.57;96681.75;4953208;28;20151;-65
2022/03/22 10:49:05;;;;;;;15.70;13.18;;;;;;;14.90;26.84;96677.75;4952882;28;20031;-65
2022/03/22 10:51:35;;;;;;;19.55;12.90;;;;;;;15.75;25.49;96678.34;4952711;28;20035;-64
2022/03/22 10:54:00;;;;;;;21.95;12.27;;;;;;;14.71;26.49;96659.03;4953077;28;20027;-65
2022/03/22 10:56:26;;;;;;;18.42;13.20;;;;;;;14.92;26.37;96654.13;4952933;28;20038;-64
2022/03/22 10:58:55;;;;;;;20.40;13.02;;;;;;;15.35;26.11;96653.88;4952691;28;20098;-67
2022/03/22 11:01:22;;;;;;;17.58;13.32;;;;;;;15.68;25.52;96677.97;4951539;28;20075;-63
2022/03/22 11:03:49;;;;;;;20.13;12.57;;;;;;;15.15;26.11;96678.38;4955818;29;20146;-66
2022/03/22 11:06:17;;;;;;;20.35;11.98;;;;;;;15.21;25.81;96672.66;4955385;28;20035;-65
2022/03/22 11:08:43;;;;;;;20.05;12.80;;;;;;;15.61;25.30;96659.56;4955197;29;20480;-65
2022/03/22 11:11:09;;;;;;;17.50;12.95;;;;;;;15.88;24.64;96637.31;4955357;29;20038;-66
2022/03/22 11:13:36;;;;;;;12.70;11.32;;;;;;;15.94;24.58;96667.50;4971506;28;20428;-66
2022/03/22 11:16:01;;;;;;;16.75;13.48;;;;;;;16.13;24.57;96648.59;4956731;28;20024;-64
2022/03/22 11:18:29;;;;;;;19.13;12.57;;;;;;;15.65;24.39;96668.63;4955148;28;20050;-64
2022/03/22 11:20:57;;;;;;;13.15;11.80;;;;;;;15.88;24.16;96663.34;4956251;28;20034;-64
2022/03/22 11:23:25;;;;;;;17.67;13.13;;;;;;;16.14;24.11;96666.28;4971506;28;20031;-64
2022/03/22 11:25:51;;;;;;;19.67;11.98;;;;;;;16.34;23.44;96647.81;4955056;29;20031;-65
2022/03/22 11:28:19;;;;;;;21.55;11.40;;;;;;;16.40;23.25;96661.94;4956360;28;20039;-64
2022/03/22 11:30:46;;;;;;;13.63;11.77;;;;;;;16.25;22.71;96640.78;4970883;28;20074;-64
2022/03/22 11:36:00;;;;;;;20.40;10.90;;;;;;;16.87;22.45;96644.44;4956649;28;20035;-65
2022/03/22 11:38:35;;;;;;;21.45;10.52;;;;;;;16.50;23.09;96656.31;4955874;28;20464;-65
2022/03/22 11:43:44;;;;;;;17.35;11.15;;;;;;;17.06;22.51;96628.09;4956257;29;20042;-64
2022/03/22 11:46:10;;;;;;;11.13;10.00;;;;;;;17.29;22.00;96625.34;4956118;28;20031;-65
2022/03/22 11:48:39;;;;;;;13.20;9.65;;;;;;;15.97;22.47;96610.53;4954866;28;20035;-64
2022/03/22 11:51:06;;;;;;;17.60;9.98;;;;;;;16.21;22.25;96612.97;4955982;28;20032;-67
2022/03/22 11:53:44;;;;;;;11.43;9.88;;;;;;;16.40;21.97;96634.28;4956051;28;20039;-65
2022/03/22 11:56:11;;;;;;;16.80;9.60;;;;;;;16.38;22.14;96610.44;4956115;28;20174;-64
2022/03/22 11:58:47;;;;;;;14.25;9.93;;;;;;;16.58;21.76;96612.63;4955796;28;20023;-66